sensor_id;sensor_type;location;lat;lon;timestamp;P1;durP1;ratioP1;P2;durP2;ratioP2
47758;SDS011;33520;55.122;35.582;2022-08-19T00:02:10;43.38;;;25.20;;
47758;SDS011;33520;55.122;35.582;2022-08-19T00:07:04;36.88;;;23.60;;
47758;SDS011;33520;55.122;35.582;2022-08-19T00:09:30;43.95;;;26.35;;
47758;SDS011;33520;55.122;35.582;2022-08-19T00:11:57;39.88;;;26.02;;
47758;SDS011;33520;55.122;35.582;2022-08-19T00:14:24;36.88;;;25.38;;
47758;SDS011;33520;55.122;35.582;2022-08-19T00:16:52;39.42;;;25.35;;
47758;SDS011;33520;55.122;35.582;2022-08-19T00:19:20;42.72;;;27.80;;
47758;SDS011;33520;55.122;35.582;2022-08-19T00:21:46;41.85;;;26.23;;
47758;SDS011;33520;55.122;35.582;2022-08-19T00:24:13;42.40;;;26.55;;
47758;SDS011;33520;55.122;35.582;2022-08-19T00:26:41;43.45;;;27.15;;
47758;SDS011;33520;55.122;35.582;2022-08-19T00:29:09;41.70;;;27.58;;
47758;SDS011;33520;55.122;35.582;2022-08-19T00:31:37;41.17;;;26.58;;
47758;SDS011;33520;55.122;35.582;2022-08-19T00:34:03;41.13;;;26.85;;
47758;SDS011;33520;55.122;35.582;2022-08-19T00:36:30;43.03;;;26.40;;
47758;SDS011;33520;55.122;35.582;2022-08-19T00:38:58;45.92;;;28.27;;
47758;SDS011;33520;55.122;35.582;2022-08-19T00:41:25;41.90;;;26.77;;
47758;SDS011;33520;55.122;35.582;2022-08-19T00:44:01;42.55;;;26.52;;
47758;SDS011;33520;55.122;35.582;2022-08-19T00:46:33;41.83;;;26.35;;
47758;SDS011;33520;55.122;35.582;2022-08-19T00:49:02;38.00;;;24.83;;
47758;SDS011;33520;55.122;35.582;2022-08-19T00:51:32;39.38;;;25.25;;
47758;SDS011;33520;55.122;35.582;2022-08-19T00:54:04;44.90;;;26.60;;
47758;SDS011;33520;55.122;35.582;2022-08-19T00:56:30;36.63;;;23.75;;
47758;SDS011;33520;55.122;35.582;2022-08-19T00:58:57;37.88;;;24.58;;
47758;SDS011;33520;55.122;35.582;2022-08-19T01:01:24;41.08;;;24.13;;
47758;SDS011;33520;55.122;35.582;2022-08-19T01:03:51;38.58;;;24.65;;
47758;SDS011;33520;55.122;35.582;2022-08-19T01:06:17;42.28;;;25.10;;
47758;SDS011;33520;55.122;35.582;2022-08-19T01:08:44;40.78;;;25.58;;
47758;SDS011;33520;55.122;35.582;2022-08-19T01:13:36;41.08;;;24.35;;
47758;SDS011;33520;55.122;35.582;2022-08-19T01:16:04;41.28;;;25.40;;
47758;SDS011;33520;55.122;35.582;2022-08-19T01:18:35;35.22;;;23.92;;
47758;SDS011;33520;55.122;35.582;2022-08-19T01:21:05;33.08;;;23.48;;
47758;SDS011;33520;55.122;35.582;2022-08-19T01:23:35;38.65;;;23.33;;
47758;SDS011;33520;55.122;35.582;2022-08-19T01:26:11;37.97;;;24.08;;
47758;SDS011;33520;55.122;35.582;2022-08-19T01:28:43;37.25;;;23.63;;
47758;SDS011;33520;55.122;35.582;2022-08-19T01:31:13;36.75;;;22.40;;
47758;SDS011;33520;55.122;35.582;2022-08-19T01:33:44;30.50;;;21.05;;
47758;SDS011;33520;55.122;35.582;2022-08-19T01:36:14;37.05;;;22.70;;
47758;SDS011;33520;55.122;35.582;2022-08-19T01:39:01;35.05;;;22.55;;
47758;SDS011;33520;55.122;35.582;2022-08-19T01:41:29;35.03;;;22.48;;
47758;SDS011;33520;55.122;35.582;2022-08-19T01:43:56;34.08;;;21.10;;
47758;SDS011;33520;55.122;35.582;2022-08-19T01:46:22;31.40;;;21.70;;
47758;SDS011;33520;55.122;35.582;2022-08-19T01:48:49;32.60;;;20.98;;
47758;SDS011;33520;55.122;35.582;2022-08-19T01:53:41;31.35;;;21.25;;
47758;SDS011;33520;55.122;35.582;2022-08-19T01:56:07;33.50;;;21.67;;
47758;SDS011;33520;55.122;35.582;2022-08-19T01:58:36;31.40;;;21.40;;
47758;SDS011;33520;55.122;35.582;2022-08-19T02:01:05;33.47;;;21.73;;
47758;SDS011;33520;55.122;35.582;2022-08-19T02:03:32;29.63;;;19.98;;
47758;SDS011;33520;55.122;35.582;2022-08-19T02:06:00;31.42;;;20.33;;
47758;SDS011;33520;55.122;35.582;2022-08-19T02:08:29;32.75;;;20.95;;
47758;SDS011;33520;55.122;35.582;2022-08-19T02:10:55;29.65;;;21.00;;
47758;SDS011;33520;55.122;35.582;2022-08-19T02:13:25;31.75;;;20.13;;
47758;SDS011;33520;55.122;35.582;2022-08-19T02:15:51;31.38;;;20.60;;
47758;SDS011;33520;55.122;35.582;2022-08-19T02:18:18;31.27;;;21.17;;
47758;SDS011;33520;55.122;35.582;2022-08-19T02:23:13;30.30;;;19.73;;
47758;SDS011;33520;55.122;35.582;2022-08-19T02:25:40;30.27;;;20.25;;
47758;SDS011;33520;55.122;35.582;2022-08-19T02:28:07;32.53;;;19.42;;
47758;SDS011;33520;55.122;35.582;2022-08-19T02:33:00;29.73;;;19.10;;
47758;SDS011;33520;55.122;35.582;2022-08-19T02:35:26;29.52;;;19.02;;
47758;SDS011;33520;55.122;35.582;2022-08-19T02:37:53;25.58;;;17.25;;
47758;SDS011;33520;55.122;35.582;2022-08-19T02:40:38;29.63;;;18.17;;
47758;SDS011;33520;55.122;35.582;2022-08-19T02:43:05;28.75;;;18.02;;
47758;SDS011;33520;55.122;35.582;2022-08-19T02:45:34;31.60;;;18.42;;
47758;SDS011;33520;55.122;35.582;2022-08-19T02:48:01;29.08;;;17.75;;
47758;SDS011;33520;55.122;35.582;2022-08-19T02:50:27;28.75;;;17.92;;
47758;SDS011;33520;55.122;35.582;2022-08-19T02:52:54;27.85;;;18.02;;
47758;SDS011;33520;55.122;35.582;2022-08-19T02:57:47;29.55;;;16.30;;
47758;SDS011;33520;55.122;35.582;2022-08-19T03:00:13;25.13;;;16.25;;
47758;SDS011;33520;55.122;35.582;2022-08-19T03:02:40;26.55;;;17.00;;
47758;SDS011;33520;55.122;35.582;2022-08-19T03:05:07;26.95;;;16.88;;
47758;SDS011;33520;55.122;35.582;2022-08-19T03:07:36;26.73;;;16.08;;
47758;SDS011;33520;55.122;35.582;2022-08-19T03:10:03;26.67;;;17.38;;
47758;SDS011;33520;55.122;35.582;2022-08-19T03:12:29;29.60;;;15.80;;
47758;SDS011;33520;55.122;35.582;2022-08-19T03:14:56;25.45;;;15.63;;
47758;SDS011;33520;55.122;35.582;2022-08-19T03:19:48;26.17;;;15.38;;
47758;SDS011;33520;55.122;35.582;2022-08-19T03:24:40;25.90;;;13.00;;
47758;SDS011;33520;55.122;35.582;2022-08-19T03:29:33;20.45;;;12.50;;
47758;SDS011;33520;55.122;35.582;2022-08-19T03:32:03;27.08;;;13.25;;
47758;SDS011;33520;55.122;35.582;2022-08-19T03:34:31;23.70;;;12.65;;
47758;SDS011;33520;55.122;35.582;2022-08-19T03:36:59;22.90;;;13.68;;
47758;SDS011;33520;55.122;35.582;2022-08-19T03:39:29;22.75;;;10.98;;
47758;SDS011;33520;55.122;35.582;2022-08-19T03:41:56;18.55;;;11.88;;
47758;SDS011;33520;55.122;35.582;2022-08-19T03:44:28;17.08;;;11.18;;
47758;SDS011;33520;55.122;35.582;2022-08-19T03:46:56;19.02;;;11.80;;
47758;SDS011;33520;55.122;35.582;2022-08-19T03:49:24;17.35;;;11.38;;
47758;SDS011;33520;55.122;35.582;2022-08-19T03:51:52;20.35;;;11.20;;
47758;SDS011;33520;55.122;35.582;2022-08-19T03:54:21;18.05;;;10.05;;
47758;SDS011;33520;55.122;35.582;2022-08-19T03:56:49;18.10;;;10.48;;
47758;SDS011;33520;55.122;35.582;2022-08-19T03:59:18;15.93;;;9.90;;
47758;SDS011;33520;55.122;35.582;2022-08-19T04:01:46;17.35;;;10.82;;
47758;SDS011;33520;55.122;35.582;2022-08-19T04:04:12;18.83;;;10.02;;
47758;SDS011;33520;55.122;35.582;2022-08-19T04:06:39;16.02;;;9.02;;
47758;SDS011;33520;55.122;35.582;2022-08-19T04:09:06;18.55;;;11.32;;
47758;SDS011;33520;55.122;35.582;2022-08-19T04:11:40;16.50;;;9.95;;
47758;SDS011;33520;55.122;35.582;2022-08-19T04:14:09;15.98;;;10.02;;
47758;SDS011;33520;55.122;35.582;2022-08-19T04:16:41;13.60;;;9.65;;
47758;SDS011;33520;55.122;35.582;2022-08-19T04:19:08;14.95;;;9.50;;
47758;SDS011;33520;55.122;35.582;2022-08-19T04:21:34;12.98;;;9.38;;
47758;SDS011;33520;55.122;35.582;2022-08-19T04:26:28;14.93;;;8.83;;
47758;SDS011;33520;55.122;35.582;2022-08-19T04:29:00;12.65;;;8.88;;
47758;SDS011;33520;55.122;35.582;2022-08-19T04:31:28;14.70;;;8.55;;
47758;SDS011;33520;55.122;35.582;2022-08-19T04:33:56;14.75;;;9.23;;
47758;SDS011;33520;55.122;35.582;2022-08-19T04:36:25;18.85;;;9.02;;
47758;SDS011;33520;55.122;35.582;2022-08-19T04:38:54;14.65;;;8.20;;
47758;SDS011;33520;55.122;35.582;2022-08-19T04:41:25;11.20;;;8.15;;
47758;SDS011;33520;55.122;35.582;2022-08-19T04:44:10;14.30;;;8.35;;
47758;SDS011;33520;55.122;35.582;2022-08-19T04:46:37;13.52;;;8.70;;
47758;SDS011;33520;55.122;35.582;2022-08-19T04:49:05;13.27;;;8.68;;
47758;SDS011;33520;55.122;35.582;2022-08-19T04:51:32;15.25;;;8.65;;
47758;SDS011;33520;55.122;35.582;2022-08-19T04:53:59;14.25;;;8.38;;
47758;SDS011;33520;55.122;35.582;2022-08-19T04:56:27;12.18;;;7.97;;
47758;SDS011;33520;55.122;35.582;2022-08-19T04:58:54;13.98;;;8.35;;
47758;SDS011;33520;55.122;35.582;2022-08-19T05:01:24;17.58;;;9.15;;
47758;SDS011;33520;55.122;35.582;2022-08-19T05:03:54;17.67;;;8.65;;
47758;SDS011;33520;55.122;35.582;2022-08-19T05:06:22;14.20;;;7.90;;
47758;SDS011;33520;55.122;35.582;2022-08-19T05:08:49;12.15;;;7.88;;
47758;SDS011;33520;55.122;35.582;2022-08-19T05:11:20;15.27;;;7.85;;
47758;SDS011;33520;55.122;35.582;2022-08-19T05:13:48;12.82;;;8.40;;
47758;SDS011;33520;55.122;35.582;2022-08-19T05:16:16;13.65;;;8.10;;
47758;SDS011;33520;55.122;35.582;2022-08-19T05:18:43;13.30;;;7.82;;
47758;SDS011;33520;55.122;35.582;2022-08-19T05:21:30;14.90;;;7.85;;
47758;SDS011;33520;55.122;35.582;2022-08-19T05:24:15;13.65;;;7.78;;
47758;SDS011;33520;55.122;35.582;2022-08-19T05:26:43;12.70;;;7.70;;
47758;SDS011;33520;55.122;35.582;2022-08-19T05:29:12;12.38;;;8.10;;
47758;SDS011;33520;55.122;35.582;2022-08-19T05:31:39;11.40;;;7.70;;
47758;SDS011;33520;55.122;35.582;2022-08-19T05:34:06;14.20;;;7.47;;
47758;SDS011;33520;55.122;35.582;2022-08-19T05:36:34;13.27;;;7.90;;
47758;SDS011;33520;55.122;35.582;2022-08-19T05:39:04;14.27;;;7.90;;
47758;SDS011;33520;55.122;35.582;2022-08-19T05:41:31;14.25;;;7.50;;
47758;SDS011;33520;55.122;35.582;2022-08-19T05:43:57;11.23;;;7.13;;
47758;SDS011;33520;55.122;35.582;2022-08-19T05:46:24;9.38;;;6.72;;
47758;SDS011;33520;55.122;35.582;2022-08-19T05:48:50;15.57;;;7.80;;
47758;SDS011;33520;55.122;35.582;2022-08-19T05:51:16;13.32;;;7.78;;
47758;SDS011;33520;55.122;35.582;2022-08-19T05:53:42;10.18;;;6.43;;
47758;SDS011;33520;55.122;35.582;2022-08-19T05:56:13;9.77;;;6.90;;
47758;SDS011;33520;55.122;35.582;2022-08-19T05:58:42;14.93;;;7.07;;
47758;SDS011;33520;55.122;35.582;2022-08-19T06:01:11;14.20;;;7.57;;
47758;SDS011;33520;55.122;35.582;2022-08-19T06:03:40;13.23;;;7.22;;
47758;SDS011;33520;55.122;35.582;2022-08-19T06:06:07;10.52;;;6.45;;
47758;SDS011;33520;55.122;35.582;2022-08-19T06:08:36;12.77;;;6.35;;
47758;SDS011;33520;55.122;35.582;2022-08-19T06:11:20;13.27;;;7.10;;
47758;SDS011;33520;55.122;35.582;2022-08-19T06:13:50;14.20;;;7.57;;
47758;SDS011;33520;55.122;35.582;2022-08-19T06:16:19;11.88;;;6.97;;
47758;SDS011;33520;55.122;35.582;2022-08-19T06:18:48;12.90;;;5.68;;
47758;SDS011;33520;55.122;35.582;2022-08-19T06:21:18;10.20;;;6.10;;
47758;SDS011;33520;55.122;35.582;2022-08-19T06:23:46;9.93;;;6.43;;
47758;SDS011;33520;55.122;35.582;2022-08-19T06:26:14;12.90;;;6.05;;
47758;SDS011;33520;55.122;35.582;2022-08-19T06:28:41;11.93;;;6.22;;
47758;SDS011;33520;55.122;35.582;2022-08-19T06:31:10;13.23;;;5.95;;
47758;SDS011;33520;55.122;35.582;2022-08-19T06:33:40;9.73;;;5.63;;
47758;SDS011;33520;55.122;35.582;2022-08-19T06:36:07;10.73;;;5.70;;
47758;SDS011;33520;55.122;35.582;2022-08-19T06:38:41;13.38;;;5.70;;
47758;SDS011;33520;55.122;35.582;2022-08-19T06:41:08;9.82;;;5.38;;
47758;SDS011;33520;55.122;35.582;2022-08-19T06:43:34;8.52;;;5.22;;
47758;SDS011;33520;55.122;35.582;2022-08-19T06:46:01;8.38;;;4.55;;
47758;SDS011;33520;55.122;35.582;2022-08-19T06:48:30;12.43;;;4.88;;
47758;SDS011;33520;55.122;35.582;2022-08-19T06:50:57;8.77;;;4.57;;
47758;SDS011;33520;55.122;35.582;2022-08-19T06:53:23;11.15;;;5.00;;
47758;SDS011;33520;55.122;35.582;2022-08-19T06:55:50;9.80;;;5.00;;
47758;SDS011;33520;55.122;35.582;2022-08-19T06:58:26;8.52;;;5.25;;
47758;SDS011;33520;55.122;35.582;2022-08-19T07:00:52;11.75;;;4.88;;
47758;SDS011;33520;55.122;35.582;2022-08-19T07:03:20;8.80;;;4.43;;
47758;SDS011;33520;55.122;35.582;2022-08-19T07:05:47;9.10;;;4.38;;
47758;SDS011;33520;55.122;35.582;2022-08-19T07:08:13;9.50;;;4.85;;
47758;SDS011;33520;55.122;35.582;2022-08-19T07:10:42;10.98;;;5.90;;
47758;SDS011;33520;55.122;35.582;2022-08-19T07:13:10;8.45;;;5.93;;
47758;SDS011;33520;55.122;35.582;2022-08-19T07:15:37;11.45;;;6.63;;
47758;SDS011;33520;55.122;35.582;2022-08-19T07:18:03;11.77;;;7.13;;
47758;SDS011;33520;55.122;35.582;2022-08-19T07:20:30;12.68;;;7.43;;
47758;SDS011;33520;55.122;35.582;2022-08-19T07:22:57;14.07;;;7.97;;
47758;SDS011;33520;55.122;35.582;2022-08-19T07:25:23;15.65;;;9.75;;
47758;SDS011;33520;55.122;35.582;2022-08-19T07:27:49;13.60;;;9.98;;
47758;SDS011;33520;55.122;35.582;2022-08-19T07:30:16;17.23;;;10.38;;
47758;SDS011;33520;55.122;35.582;2022-08-19T07:32:42;21.05;;;12.15;;
47758;SDS011;33520;55.122;35.582;2022-08-19T07:35:09;19.55;;;12.65;;
47758;SDS011;33520;55.122;35.582;2022-08-19T07:37:35;25.63;;;16.08;;
47758;SDS011;33520;55.122;35.582;2022-08-19T07:40:06;27.10;;;16.17;;
47758;SDS011;33520;55.122;35.582;2022-08-19T07:42:32;26.30;;;16.90;;
47758;SDS011;33520;55.122;35.582;2022-08-19T07:44:58;31.20;;;20.85;;
47758;SDS011;33520;55.122;35.582;2022-08-19T07:47:25;39.78;;;21.30;;
47758;SDS011;33520;55.122;35.582;2022-08-19T07:49:51;32.88;;;20.08;;
47758;SDS011;33520;55.122;35.582;2022-08-19T07:52:17;36.53;;;21.35;;
47758;SDS011;33520;55.122;35.582;2022-08-19T07:54:44;28.73;;;19.25;;
47758;SDS011;33520;55.122;35.582;2022-08-19T07:57:10;28.88;;;19.20;;
47758;SDS011;33520;55.122;35.582;2022-08-19T07:59:36;31.67;;;19.63;;
47758;SDS011;33520;55.122;35.582;2022-08-19T08:02:03;25.40;;;17.52;;
47758;SDS011;33520;55.122;35.582;2022-08-19T08:04:30;29.45;;;17.90;;
47758;SDS011;33520;55.122;35.582;2022-08-19T08:07:15;26.48;;;17.83;;
47758;SDS011;33520;55.122;35.582;2022-08-19T08:10:00;28.23;;;17.77;;
47758;SDS011;33520;55.122;35.582;2022-08-19T08:12:30;25.90;;;16.90;;
47758;SDS011;33520;55.122;35.582;2022-08-19T08:14:59;23.50;;;16.20;;
47758;SDS011;33520;55.122;35.582;2022-08-19T08:17:29;24.20;;;14.27;;
47758;SDS011;33520;55.122;35.582;2022-08-19T08:19:55;19.45;;;13.13;;
47758;SDS011;33520;55.122;35.582;2022-08-19T08:22:23;20.98;;;12.68;;
47758;SDS011;33520;55.122;35.582;2022-08-19T08:25:09;22.48;;;12.40;;
47758;SDS011;33520;55.122;35.582;2022-08-19T08:27:38;20.15;;;12.65;;
47758;SDS011;33520;55.122;35.582;2022-08-19T08:30:06;15.07;;;9.48;;
47758;SDS011;33520;55.122;35.582;2022-08-19T08:32:37;18.25;;;9.90;;
47758;SDS011;33520;55.122;35.582;2022-08-19T08:35:04;13.40;;;8.98;;
47758;SDS011;33520;55.122;35.582;2022-08-19T08:37:31;15.65;;;9.50;;
47758;SDS011;33520;55.122;35.582;2022-08-19T08:39:58;12.73;;;8.15;;
47758;SDS011;33520;55.122;35.582;2022-08-19T08:42:32;13.50;;;7.50;;
47758;SDS011;33520;55.122;35.582;2022-08-19T08:45:02;9.10;;;6.07;;
47758;SDS011;33520;55.122;35.582;2022-08-19T08:47:37;13.90;;;6.57;;
47758;SDS011;33520;55.122;35.582;2022-08-19T08:50:09;11.55;;;6.13;;
47758;SDS011;33520;55.122;35.582;2022-08-19T08:52:42;7.75;;;5.03;;
47758;SDS011;33520;55.122;35.582;2022-08-19T08:55:12;7.10;;;5.20;;
47758;SDS011;33520;55.122;35.582;2022-08-19T08:58:24;9.75;;;4.88;;
47758;SDS011;33520;55.122;35.582;2022-08-19T09:00:36;10.00;;;5.05;;
47758;SDS011;33520;55.122;35.582;2022-08-19T09:03:07;8.15;;;4.95;;
47758;SDS011;33520;55.122;35.582;2022-08-19T09:08:13;6.65;;;4.80;;
47758;SDS011;33520;55.122;35.582;2022-08-19T09:11:03;9.75;;;4.25;;
47758;SDS011;33520;55.122;35.582;2022-08-19T09:13:37;6.22;;;4.07;;
47758;SDS011;33520;55.122;35.582;2022-08-19T09:16:16;8.98;;;4.45;;
47758;SDS011;33520;55.122;35.582;2022-08-19T09:18:50;7.70;;;4.60;;
47758;SDS011;33520;55.122;35.582;2022-08-19T09:21:21;6.95;;;4.30;;
47758;SDS011;33520;55.122;35.582;2022-08-19T09:23:51;4.93;;;3.85;;
47758;SDS011;33520;55.122;35.582;2022-08-19T09:26:18;7.53;;;3.70;;
47758;SDS011;33520;55.122;35.582;2022-08-19T09:28:47;6.25;;;3.05;;
47758;SDS011;33520;55.122;35.582;2022-08-19T09:31:15;6.60;;;3.50;;
47758;SDS011;33520;55.122;35.582;2022-08-19T09:33:42;8.43;;;3.38;;
47758;SDS011;33520;55.122;35.582;2022-08-19T09:36:10;5.43;;;3.10;;
47758;SDS011;33520;55.122;35.582;2022-08-19T09:38:38;5.25;;;3.60;;
47758;SDS011;33520;55.122;35.582;2022-08-19T09:41:12;4.75;;;3.25;;
47758;SDS011;33520;55.122;35.582;2022-08-19T09:43:40;6.82;;;3.80;;
47758;SDS011;33520;55.122;35.582;2022-08-19T09:46:08;4.25;;;3.15;;
47758;SDS011;33520;55.122;35.582;2022-08-19T09:48:35;4.72;;;3.28;;
47758;SDS011;33520;55.122;35.582;2022-08-19T09:51:10;5.40;;;3.08;;
47758;SDS011;33520;55.122;35.582;2022-08-19T09:53:40;7.57;;;3.42;;
47758;SDS011;33520;55.122;35.582;2022-08-19T09:56:07;7.20;;;3.47;;
47758;SDS011;33520;55.122;35.582;2022-08-19T09:58:34;5.70;;;3.58;;
47758;SDS011;33520;55.122;35.582;2022-08-19T10:01:01;7.57;;;3.65;;
47758;SDS011;33520;55.122;35.582;2022-08-19T10:03:29;6.88;;;3.33;;
47758;SDS011;33520;55.122;35.582;2022-08-19T10:05:57;5.82;;;3.70;;
47758;SDS011;33520;55.122;35.582;2022-08-19T10:08:27;6.75;;;3.50;;
47758;SDS011;33520;55.122;35.582;2022-08-19T10:10:56;6.50;;;3.20;;
47758;SDS011;33520;55.122;35.582;2022-08-19T10:13:24;4.07;;;3.20;;
47758;SDS011;33520;55.122;35.582;2022-08-19T10:15:53;5.18;;;3.38;;
47758;SDS011;33520;55.122;35.582;2022-08-19T10:18:22;4.88;;;3.08;;
47758;SDS011;33520;55.122;35.582;2022-08-19T10:20:50;4.65;;;3.13;;
47758;SDS011;33520;55.122;35.582;2022-08-19T10:23:17;8.35;;;3.65;;
47758;SDS011;33520;55.122;35.582;2022-08-19T10:25:45;6.35;;;3.50;;
47758;SDS011;33520;55.122;35.582;2022-08-19T10:28:11;7.70;;;3.50;;
47758;SDS011;33520;55.122;35.582;2022-08-19T10:30:40;4.90;;;2.90;;
47758;SDS011;33520;55.122;35.582;2022-08-19T10:33:07;6.97;;;3.17;;
47758;SDS011;33520;55.122;35.582;2022-08-19T10:35:33;5.03;;;3.10;;
47758;SDS011;33520;55.122;35.582;2022-08-19T10:38:00;6.10;;;3.58;;
47758;SDS011;33520;55.122;35.582;2022-08-19T10:40:28;8.68;;;3.35;;
47758;SDS011;33520;55.122;35.582;2022-08-19T10:42:55;4.78;;;3.00;;
47758;SDS011;33520;55.122;35.582;2022-08-19T10:45:21;5.57;;;3.00;;
47758;SDS011;33520;55.122;35.582;2022-08-19T10:47:54;5.05;;;3.08;;
47758;SDS011;33520;55.122;35.582;2022-08-19T10:50:21;7.72;;;3.10;;
47758;SDS011;33520;55.122;35.582;2022-08-19T10:53:06;8.30;;;3.03;;
47758;SDS011;33520;55.122;35.582;2022-08-19T10:55:36;7.25;;;2.90;;
47758;SDS011;33520;55.122;35.582;2022-08-19T10:58:21;6.95;;;2.90;;
47758;SDS011;33520;55.122;35.582;2022-08-19T11:00:55;7.13;;;3.17;;
47758;SDS011;33520;55.122;35.582;2022-08-19T11:03:23;7.55;;;3.22;;
47758;SDS011;33520;55.122;35.582;2022-08-19T11:05:57;4.93;;;2.90;;
47758;SDS011;33520;55.122;35.582;2022-08-19T11:08:28;6.95;;;2.92;;
47758;SDS011;33520;55.122;35.582;2022-08-19T11:10:58;9.05;;;3.10;;
47758;SDS011;33520;55.122;35.582;2022-08-19T11:13:27;7.30;;;3.70;;
47758;SDS011;33520;55.122;35.582;2022-08-19T11:16:02;4.50;;;2.95;;
47758;SDS011;33520;55.122;35.582;2022-08-19T11:18:34;6.65;;;2.92;;
47758;SDS011;33520;55.122;35.582;2022-08-19T11:21:05;3.70;;;2.72;;
47758;SDS011;33520;55.122;35.582;2022-08-19T11:23:35;10.13;;;3.35;;
47758;SDS011;33520;55.122;35.582;2022-08-19T11:26:01;4.53;;;3.30;;
47758;SDS011;33520;55.122;35.582;2022-08-19T11:28:28;4.70;;;2.42;;
47758;SDS011;33520;55.122;35.582;2022-08-19T11:30:54;6.75;;;3.00;;
47758;SDS011;33520;55.122;35.582;2022-08-19T11:33:20;8.27;;;2.70;;
47758;SDS011;33520;55.122;35.582;2022-08-19T11:35:46;3.22;;;2.38;;
47758;SDS011;33520;55.122;35.582;2022-08-19T11:38:12;4.90;;;2.30;;
47758;SDS011;33520;55.122;35.582;2022-08-19T11:40:40;5.05;;;2.97;;
47758;SDS011;33520;55.122;35.582;2022-08-19T11:43:07;6.82;;;2.28;;
47758;SDS011;33520;55.122;35.582;2022-08-19T11:45:34;6.15;;;2.28;;
47758;SDS011;33520;55.122;35.582;2022-08-19T11:48:01;6.53;;;2.58;;
47758;SDS011;33520;55.122;35.582;2022-08-19T11:50:27;5.40;;;2.05;;
47758;SDS011;33520;55.122;35.582;2022-08-19T11:52:54;3.25;;;2.25;;
47758;SDS011;33520;55.122;35.582;2022-08-19T11:55:22;3.70;;;2.10;;
47758;SDS011;33520;55.122;35.582;2022-08-19T11:57:48;4.13;;;2.28;;
47758;SDS011;33520;55.122;35.582;2022-08-19T12:00:15;6.38;;;2.70;;
47758;SDS011;33520;55.122;35.582;2022-08-19T12:02:41;4.82;;;2.60;;
47758;SDS011;33520;55.122;35.582;2022-08-19T12:05:08;9.77;;;2.92;;
47758;SDS011;33520;55.122;35.582;2022-08-19T12:07:34;5.60;;;2.35;;
47758;SDS011;33520;55.122;35.582;2022-08-19T12:10:01;6.63;;;2.58;;
47758;SDS011;33520;55.122;35.582;2022-08-19T12:12:28;7.80;;;2.60;;
47758;SDS011;33520;55.122;35.582;2022-08-19T12:14:55;7.40;;;2.63;;
47758;SDS011;33520;55.122;35.582;2022-08-19T12:17:24;4.47;;;2.55;;
47758;SDS011;33520;55.122;35.582;2022-08-19T12:19:52;3.40;;;2.40;;
47758;SDS011;33520;55.122;35.582;2022-08-19T12:22:19;3.42;;;2.65;;
47758;SDS011;33520;55.122;35.582;2022-08-19T12:24:46;4.75;;;2.67;;
47758;SDS011;33520;55.122;35.582;2022-08-19T12:27:15;6.70;;;3.28;;
47758;SDS011;33520;55.122;35.582;2022-08-19T12:29:41;4.53;;;2.72;;
47758;SDS011;33520;55.122;35.582;2022-08-19T12:32:08;9.38;;;2.90;;
47758;SDS011;33520;55.122;35.582;2022-08-19T12:34:34;3.83;;;2.70;;
47758;SDS011;33520;55.122;35.582;2022-08-19T12:37:03;4.22;;;2.63;;
47758;SDS011;33520;55.122;35.582;2022-08-19T12:39:38;5.70;;;2.75;;
47758;SDS011;33520;55.122;35.582;2022-08-19T12:42:07;3.65;;;2.63;;
47758;SDS011;33520;55.122;35.582;2022-08-19T12:44:35;4.93;;;2.50;;
47758;SDS011;33520;55.122;35.582;2022-08-19T12:47:02;2.38;;;2.10;;
47758;SDS011;33520;55.122;35.582;2022-08-19T12:49:30;5.97;;;2.97;;
47758;SDS011;33520;55.122;35.582;2022-08-19T12:51:59;5.25;;;2.63;;
47758;SDS011;33520;55.122;35.582;2022-08-19T12:54:26;5.93;;;2.63;;
47758;SDS011;33520;55.122;35.582;2022-08-19T12:56:53;3.90;;;2.60;;
47758;SDS011;33520;55.122;35.582;2022-08-19T12:59:19;7.50;;;2.78;;
47758;SDS011;33520;55.122;35.582;2022-08-19T13:01:45;4.35;;;2.47;;
47758;SDS011;33520;55.122;35.582;2022-08-19T13:04:12;5.97;;;2.75;;
47758;SDS011;33520;55.122;35.582;2022-08-19T13:06:38;3.08;;;2.40;;
47758;SDS011;33520;55.122;35.582;2022-08-19T13:09:05;4.72;;;2.20;;
47758;SDS011;33520;55.122;35.582;2022-08-19T13:11:31;6.22;;;2.40;;
47758;SDS011;33520;55.122;35.582;2022-08-19T13:14:01;4.30;;;2.33;;
47758;SDS011;33520;55.122;35.582;2022-08-19T13:16:28;8.35;;;2.38;;
47758;SDS011;33520;55.122;35.582;2022-08-19T13:18:55;6.40;;;2.42;;
47758;SDS011;33520;55.122;35.582;2022-08-19T13:21:24;6.47;;;2.28;;
47758;SDS011;33520;55.122;35.582;2022-08-19T13:23:53;3.80;;;2.30;;
47758;SDS011;33520;55.122;35.582;2022-08-19T13:26:20;6.38;;;2.33;;
47758;SDS011;33520;55.122;35.582;2022-08-19T13:28:47;9.30;;;2.40;;
47758;SDS011;33520;55.122;35.582;2022-08-19T13:31:32;4.65;;;2.70;;
47758;SDS011;33520;55.122;35.582;2022-08-19T13:34:19;8.15;;;2.72;;
47758;SDS011;33520;55.122;35.582;2022-08-19T13:36:58;6.68;;;2.88;;
47758;SDS011;33520;55.122;35.582;2022-08-19T13:39:25;8.02;;;2.78;;
47758;SDS011;33520;55.122;35.582;2022-08-19T13:41:51;4.65;;;3.05;;
47758;SDS011;33520;55.122;35.582;2022-08-19T13:44:18;4.35;;;2.70;;
47758;SDS011;33520;55.122;35.582;2022-08-19T13:46:45;8.82;;;2.78;;
47758;SDS011;33520;55.122;35.582;2022-08-19T13:49:12;16.40;;;3.85;;
47758;SDS011;33520;55.122;35.582;2022-08-19T13:51:41;6.13;;;3.33;;
47758;SDS011;33520;55.122;35.582;2022-08-19T13:54:09;9.57;;;2.58;;
47758;SDS011;33520;55.122;35.582;2022-08-19T13:56:39;7.75;;;2.95;;
47758;SDS011;33520;55.122;35.582;2022-08-19T13:59:10;7.53;;;3.13;;
47758;SDS011;33520;55.122;35.582;2022-08-19T14:01:37;11.55;;;3.35;;
47758;SDS011;33520;55.122;35.582;2022-08-19T14:04:04;8.93;;;3.78;;
47758;SDS011;33520;55.122;35.582;2022-08-19T14:06:31;7.75;;;3.30;;
47758;SDS011;33520;55.122;35.582;2022-08-19T14:08:58;7.38;;;3.45;;
47758;SDS011;33520;55.122;35.582;2022-08-19T14:11:25;7.90;;;3.30;;
47758;SDS011;33520;55.122;35.582;2022-08-19T14:13:51;12.18;;;3.70;;
47758;SDS011;33520;55.122;35.582;2022-08-19T14:16:18;5.82;;;3.50;;
47758;SDS011;33520;55.122;35.582;2022-08-19T14:18:44;7.07;;;4.10;;
47758;SDS011;33520;55.122;35.582;2022-08-19T14:21:17;5.90;;;3.83;;
47758;SDS011;33520;55.122;35.582;2022-08-19T14:23:46;10.90;;;4.07;;
47758;SDS011;33520;55.122;35.582;2022-08-19T14:26:13;10.05;;;4.45;;
47758;SDS011;33520;55.122;35.582;2022-08-19T14:28:42;8.73;;;3.90;;
47758;SDS011;33520;55.122;35.582;2022-08-19T14:31:09;8.20;;;4.40;;
47758;SDS011;33520;55.122;35.582;2022-08-19T14:33:36;7.47;;;4.30;;
47758;SDS011;33520;55.122;35.582;2022-08-19T14:36:03;9.60;;;5.07;;
47758;SDS011;33520;55.122;35.582;2022-08-19T14:38:30;9.00;;;4.45;;
47758;SDS011;33520;55.122;35.582;2022-08-19T14:41:12;9.75;;;4.32;;
47758;SDS011;33520;55.122;35.582;2022-08-19T14:43:45;10.45;;;5.30;;
47758;SDS011;33520;55.122;35.582;2022-08-19T14:46:13;13.25;;;5.00;;
47758;SDS011;33520;55.122;35.582;2022-08-19T14:48:41;8.35;;;5.85;;
47758;SDS011;33520;55.122;35.582;2022-08-19T14:51:08;8.73;;;5.30;;
47758;SDS011;33520;55.122;35.582;2022-08-19T14:53:34;9.88;;;5.35;;
47758;SDS011;33520;55.122;35.582;2022-08-19T14:56:01;6.90;;;4.88;;
47758;SDS011;33520;55.122;35.582;2022-08-19T14:58:33;8.77;;;5.60;;
47758;SDS011;33520;55.122;35.582;2022-08-19T15:00:59;8.13;;;5.78;;